Terminal Aerodrome Forecast
Issued by NWS

Home | Current Version | Previous Version | Text Only | Print | Product List | Glossary On
Versions: 1 2 3 4 5 6 7 8 9 10 11 12 13 14
000
FTUS45 KPSR 252300
TAFBLH
TAF
KBLH 252320Z 2600/2624 08007KT P6SM FEW170 BKN250
     FM260300 33005KT P6SM FEW100 SCT150 BKN200
     FM261200 VRB04KT P6SM SCT070 BKN100 OVC150
     FM261700 VRB05KT P6SM -RA FEW040 SCT060 OVC080
     FM262000 01006KT P6SM -RA SCT030 OVC050=

USA.gov is the U.S. government's official web portal to all federal, state and local government web resources and services.